Latest Weather Observations for Tidbinbilla

IDN60801

Issued at 6:33 pm EST Monday 4 July 2022 (issued every 10 minutes, with the page automatically refreshed every 10 minutes)

About weather observations | Map of weather stations | Latest weather observations for NSW | Other Formats
Station Details ID: 250069 Name: TIDBINBILLA (PCS) Lat: -35.46 Lon: 148.94 Height: 883.0 m

Portable automatic weather stations (PAWS) are operated by other organisations, such as Fire and Emergency Services, and are included here by agreement. Portable stations may be deployed to a location for a short period and their location may be subject to change without notice. Wind observations from these stations are provided from heights of either three (3) or ten (10) metres above ground level (AGL).

Data from the previous 72 hours. | See also: Recent months for locations in New South Wales
Date/Time
EST
Temp
°C
App
Temp
°C
Dew
Point
°C
Rel
Hum
%
Delta-T
°C
Wind Press
QNH
hPa
Press
MSL
hPa
Rain since
9am
mm
Dir  Spd
km/h
Gust
km/h
Spd
kts
Gust
kts
04/06:20pm 7.6 3.4 1.6 66 2.6 SSW 13 22 7 12 1022.5 - 0.0
04/05:50pm 8.0 4.1 0.9 61 3.0 SSW 11 15 6 8 1022.2 - 0.0
04/05:40pm 7.9 3.9 0.8 61 3.0 SSW 11 19 6 10 1022.2 - 0.0
04/05:30pm 8.1 4.1 0.8 60 3.1 SSW 11 20 6 11 1022.1 - 0.0
04/05:20pm 8.2 3.1 0.6 59 3.2 S 17 28 9 15 1022.1 - 0.0
04/05:10pm 8.2 2.7 0.5 58 3.3 S 19 26 10 14 1022.1 - 0.0
04/05:00pm 8.4 2.9 0.7 58 3.3 SSW 19 26 10 14 1022.0 - 0.0
04/04:40pm 8.5 3.5 1.3 60 3.1 SSW 17 20 9 11 1022.0 - 0.0
04/04:20pm 8.9 4.7 1.6 60 3.2 SSW 13 19 7 10 1021.9 - 0.0
04/04:10pm 9.1 5.8 2.3 62 3.0 SSW 9 15 5 8 1021.7 - 0.0
04/04:00pm 9.2 5.4 1.5 58 3.4 SSW 11 19 6 10 1021.6 - 0.0
04/03:40pm 9.5 4.6 1.7 58 3.4 S 17 28 9 15 1021.2 - 0.0
04/03:10pm 9.9 5.4 2.1 58 3.5 SSW 15 26 8 14 1021.3 - 0.0
04/03:00pm 9.7 5.2 2.0 58 3.4 S 15 20 8 11 1021.2 - 0.0
04/02:50pm 9.4 5.3 2.0 60 3.3 SSW 13 19 7 10 1020.9 - 0.0
04/02:40pm 9.3 4.1 2.4 62 3.1 SSW 19 39 10 21 1021.0 - 0.0
04/02:30pm 9.7 4.3 2.2 59 3.3 SSW 20 32 11 17 1020.7 - 0.0
04/02:10pm 10.7 4.6 2.9 58 3.6 SSW 24 32 13 17 1021.1 - 0.0
04/02:00pm 11.6 6.4 2.6 54 4.1 SSW 19 22 10 12 1021.3 - 0.0
04/01:50pm 11.6 7.6 2.9 55 4.0 SSW 13 20 7 11 1021.3 - 0.0
04/01:40pm 11.7 8.3 2.1 51 4.3 S 9 15 5 8 1021.4 - 0.0
04/01:30pm 11.1 5.4 2.9 57 3.8 SSW 22 30 12 16 1021.6 - 0.0
04/01:10pm 10.4 4.2 2.2 57 3.7 SSW 24 32 13 17 1021.5 - 0.0
04/12:50pm 10.1 3.5 1.9 56 3.6 S 26 41 14 22 1021.6 - 0.0
04/12:40pm 10.1 3.8 1.8 56 3.7 S 24 35 13 19 1021.6 - 0.0
04/12:20pm 10.6 5.3 2.1 55 3.8 S 19 32 10 17 1021.9 - 0.0
04/12:10pm 10.6 4.3 1.8 54 3.9 S 24 30 13 16 1022.0 - 0.0
04/11:50am 11.0 6.1 1.9 53 4.1 SSW 17 22 9 12 1022.4 - 0.0
04/11:40am 10.6 4.4 1.9 55 3.9 SSW 24 32 13 17 1022.4 - 0.0
04/11:30am 10.6 4.7 1.8 54 3.9 SSW 22 26 12 14 1022.4 - 0.0
04/11:20am 10.2 4.2 1.0 53 4.0 SSW 22 30 12 16 1022.5 - 0.0
04/11:10am 9.7 2.6 1.3 56 3.7 SSW 28 35 15 19 1022.6 - 0.0
04/11:00am 10.1 3.5 1.8 56 3.7 S 26 32 14 17 1022.7 - 0.0
04/10:30am 9.6 4.3 1.6 57 3.5 S 19 26 10 14 1023.1 - 0.0
04/10:20am 9.5 4.1 1.0 55 3.7 SSW 19 26 10 14 1023.2 - 0.0
04/10:10am 9.5 3.5 1.0 55 3.7 SSW 22 32 12 17 1022.9 - 0.0
04/10:00am 9.2 3.4 0.2 53 3.8 SSW 20 26 11 14 1023.0 - 0.0
04/09:20am 8.6 4.8 1.6 61 3.0 SSW 11 19 6 10 1022.9 - 0.0
04/09:10am 8.3 3.3 1.6 62 2.9 SSW 17 30 9 16 1022.8 - 0.0
04/08:50am 8.3 4.5 1.5 62 2.9 WSW 11 15 6 8 1022.6 - 0.0
04/08:40am 7.8 3.1 1.2 63 2.8 SSW 15 20 8 11 1022.6 - 0.0
04/08:30am 7.5 2.4 1.0 63 2.8 SSW 17 22 9 12 1022.5 - 0.0
04/08:20am 7.3 2.2 0.7 63 2.8 SSW 17 24 9 13 1022.6 - 0.0
04/08:10am 7.0 0.5 0.4 63 2.7 S 24 30 13 16 1022.4 - 0.0
04/07:50am 6.8 1.0 0.2 63 2.7 SSW 20 32 11 17 1022.6 - 0.0
04/07:40am 6.7 -0.2 -0.1 62 2.8 S 26 37 14 20 1022.6 - 0.0
04/07:20am 6.3 -0.6 0.0 64 2.6 SSW 26 32 14 17 1022.2 - 0.0
04/07:10am 6.4 -0.5 0.1 64 2.6 SSW 26 39 14 21 1022.1 - 0.0
04/06:50am 6.3 0.1 0.0 64 2.6 SSW 22 28 12 15 1021.8 - 0.0
04/06:40am 6.4 -0.1 0.0 63 2.6 SSW 24 33 13 18 1022.0 - 0.0
04/06:30am 6.3 1.4 -0.3 62 2.7 SSW 15 26 8 14 1021.6 - 0.0
04/06:20am 6.3 3.1 -0.8 60 2.8 WSW 6 11 3 6 1021.9 - 0.0
04/05:50am 6.3 3.1 -0.2 63 2.6 SSW 6 9 3 5 1021.6 - 0.0
04/05:20am 6.7 2.9 -0.8 59 3.0 SSE 9 17 5 9 1021.4 - 0.0
04/05:10am 6.4 0.6 -0.3 62 2.7 SSE 20 32 11 17 1021.3 - 0.0
04/05:00am 6.2 2.1 0.0 64 2.5 S 11 17 6 9 1021.5 - 0.0
04/04:50am 6.3 1.9 0.2 65 2.5 SSE 13 20 7 11 1021.4 - 0.0
04/04:40am 6.1 1.7 0.6 68 2.3 S 13 17 7 9 1021.7 - 0.0
04/04:20am 6.5 0.4 0.6 66 2.5 SSW 22 32 12 17 1021.3 - 0.0
04/04:10am 6.6 -0.6 0.7 66 2.5 SSW 28 37 15 20 1021.1 - 0.0
04/03:50am 6.7 0.7 0.8 66 2.5 S 22 26 12 14 1021.3 - 0.0
04/03:40am 6.7 -0.1 0.7 65 2.5 SSW 26 37 14 20 1021.3 - 0.0
04/03:30am 6.7 1.0 0.8 66 2.5 SSW 20 28 11 15 1021.3 - 0.0
04/03:20am 6.7 1.2 0.9 66 2.4 SSW 19 24 10 13 1021.4 - 0.0
04/03:10am 6.7 2.0 1.0 67 2.4 SSW 15 24 8 13 1021.1 - 0.0
04/03:00am 6.5 3.0 1.1 68 2.3 SSW 9 15 5 8 1021.3 - 0.0
04/02:50am 6.5 3.0 1.1 68 2.3 SW 9 17 5 9 1021.4 - 0.0
04/02:30am 6.7 3.2 1.1 67 2.4 SSW 9 19 5 10 1021.5 - 0.0
04/01:50am 7.0 0.6 1.2 66 2.5 S 24 32 13 17 1021.5 - 0.0
04/01:30am 7.1 2.5 1.5 67 2.4 S 15 20 8 11 1021.7 - 0.0
04/01:20am 7.1 3.3 1.5 67 2.4 SSW 11 17 6 9 1022.1 - 0.0
04/01:00am 7.1 2.9 1.6 68 2.4 SSW 13 28 7 15 1021.9 - 0.0
04/12:50am 7.1 3.3 1.5 67 2.4 SSW 11 19 6 10 1022.1 - 0.0
04/12:40am 7.2 3.3 1.4 66 2.5 SSW 11 17 6 9 1022.1 - 0.0
04/12:10am 7.2 4.1 1.5 67 2.4 SSW 7 13 4 7 1022.7 - 0.0
04/12:00am 7.5 3.7 1.6 66 2.5 S 11 19 6 10 1022.6 - 0.0
 
Date/Time
EST
Temp
°C
App
Temp
°C
Dew
Point
°C
Rel
Hum
%
Delta-T
°C
Wind Press
QNH
hPa
Press
MSL
hPa
Rain since
9am
mm
Dir  Spd
km/h
Gust
km/h
Spd
kts
Gust
kts
03/11:50pm 7.5 3.3 1.6 66 2.5 SSW 13 24 7 13 1023.0 - 0.0
03/11:30pm 7.5 3.8 2.1 68 2.4 S 11 19 6 10 1022.9 - 0.0
03/11:10pm 7.4 3.6 1.9 68 2.4 SSW 11 26 6 14 1022.5 - 0.0
03/10:50pm 7.5 3.7 2.0 68 2.4 SSW 11 19 6 10 1022.6 - 0.0
03/10:40pm 7.4 4.0 1.9 68 2.4 WSW 9 20 5 11 1022.6 - 0.0
03/10:20pm 7.5 3.7 1.9 67 2.4 SW 11 22 6 12 1022.8 - 0.0
03/10:10pm 7.5 3.7 1.7 66 2.5 S 11 20 6 11 1022.8 - 0.0
03/10:00pm 7.5 4.1 1.8 67 2.5 W 9 11 5 6 1022.8 - 0.0
03/09:50pm 7.3 3.5 1.6 67 2.4 S 11 17 6 9 1022.8 - 0.0
03/09:40pm 7.3 3.8 1.5 66 2.5 WSW 9 17 5 9 1022.8 - 0.0
03/09:20pm 7.4 3.5 1.3 65 2.6 WSW 11 19 6 10 1022.9 - 0.0
03/09:10pm 7.3 3.8 1.2 65 2.6 WNW 9 15 5 8 1023.2 - 0.0
03/08:50pm 7.5 2.8 1.0 63 2.8 S 15 26 8 14 1023.2 - 0.0
03/08:40pm 7.5 2.8 0.9 63 2.8 S 15 22 8 12 1023.4 - 0.0
03/08:30pm 7.5 3.6 1.3 65 2.7 S 11 17 6 9 1023.3 - 0.0
03/08:10pm 7.4 4.5 1.5 66 2.5 SSE 6 11 3 6 1023.4 - 0.0
03/07:50pm 7.4 4.0 2.0 68 2.3 NW 9 13 5 7 1023.4 - 0.0
03/07:20pm 7.6 3.4 1.4 65 2.7 S 13 32 7 17 1023.4 - 0.0
03/07:10pm 7.6 4.1 1.3 64 2.7 SW 9 17 5 9 1023.3 - 0.0
03/06:40pm 7.8 3.5 1.0 62 2.9 SW 13 19 7 10 1023.2 - 0.0
03/06:30pm 7.6 4.1 1.1 63 2.8 S 9 17 5 9 1023.1 - 0.0
03/06:20pm 7.6 4.1 1.2 64 2.7 S 9 17 5 9 1023.1 - 0.0
03/06:00pm 7.6 3.8 1.7 66 2.5 S 11 17 6 9 1022.7 - 0.0
03/05:50pm 7.6 3.8 1.6 66 2.6 SSW 11 17 6 9 1023.3 - 0.0
03/05:20pm 7.7 4.0 2.3 68 2.4 SSW 11 19 6 10 1023.2 - 0.0
03/05:10pm 7.9 4.6 2.7 69 2.3 SW 9 13 5 7 1023.2 - 0.0
03/05:00pm 7.9 4.6 2.5 68 2.4 SSW 9 17 5 9 1023.2 - 0.0
03/04:40pm 8.3 5.3 2.2 65 2.7 NW 7 11 4 6 1023.2 - 0.0
03/04:10pm 8.9 5.2 2.3 63 2.9 SE 11 20 6 11 1023.2 - 0.0
03/04:00pm 8.9 4.8 2.1 62 3.0 SW 13 24 7 13 1023.1 - 0.0
03/03:50pm 9.1 6.2 2.5 63 2.9 WNW 7 15 4 8 1023.0 - 0.0
03/03:40pm 9.1 5.9 2.8 64 2.8 S 9 15 5 8 1023.1 - 0.0
03/03:30pm 9.3 5.3 2.6 63 3.0 S 13 22 7 12 1023.1 - 0.0
03/03:20pm 9.8 5.4 2.9 62 3.1 SE 15 28 8 15 1023.0 - 0.0
03/03:00pm 9.8 6.1 2.5 60 3.3 ESE 11 22 6 12 1023.2 - 0.0
03/02:40pm 9.8 5.3 2.2 59 3.4 SSE 15 20 8 11 1022.8 - 0.0
03/02:30pm 9.6 6.3 2.4 61 3.2 SSE 9 20 5 11 1023.1 - 0.0
03/02:10pm 10.3 7.2 3.4 62 3.2 S 9 15 5 8 1023.0 - 0.0
03/01:50pm 11.2 8.5 2.6 55 3.9 ESE 6 11 3 6 1023.3 - 0.0
03/01:40pm 11.0 7.5 3.4 59 3.5 SSE 11 20 6 11 1023.4 - 0.0
03/01:30pm 10.7 6.3 2.9 58 3.6 SE 15 26 8 14 1023.5 - 0.0
03/01:20pm 10.3 6.4 3.4 62 3.2 SSE 13 22 7 12 1023.5 - 0.0
03/01:00pm 10.9 7.8 3.5 60 3.4 ESE 9 19 5 10 1023.6 - 0.0
03/12:40pm 10.5 6.0 2.1 56 3.8 - 15 22 8 12 1023.8 - 0.0
03/12:10pm 10.5 7.2 2.7 58 3.5 E 9 15 5 8 1024.1 - 0.0
03/11:50am 10.0 6.8 3.3 63 3.1 SSE 9 17 5 9 1024.8 - 0.0
03/11:40am 10.3 7.6 3.8 64 3.0 NNE 7 15 4 8 1024.8 - 0.0
03/11:30am 11.3 8.7 4.0 61 3.4 W 7 11 4 6 1024.8 - 0.0
03/11:20am 10.7 8.0 3.6 61 3.3 WSW 7 11 4 6 1024.9 - 0.0
03/11:10am 10.0 6.4 3.0 62 3.2 S 11 15 6 8 1025.0 - 0.0
03/11:00am 10.3 6.7 3.0 60 3.3 S 11 26 6 14 1025.1 - 0.0
03/10:50am 10.6 7.0 3.2 60 3.4 SSW 11 17 6 9 1025.0 - 0.0
03/10:30am 10.6 6.8 3.7 62 3.2 SSE 13 24 7 13 1025.2 - 0.0
03/10:20am 10.8 6.9 3.4 60 3.4 ESE 13 20 7 11 1025.4 - 0.0
03/10:00am 10.1 7.0 3.5 63 3.0 S 9 20 5 11 1025.6 - 0.0
03/09:30am 9.5 6.7 3.1 64 2.9 WSW 7 9 4 5 1025.7 - 0.0
03/09:20am 8.5 5.2 2.4 65 2.7 NW 9 19 5 10 1025.7 - 0.0
03/09:10am 8.1 4.8 2.5 68 2.5 ENE 9 20 5 11 1025.9 - 0.0
03/08:30am 8.1 4.0 2.3 67 2.6 SSE 13 22 7 12 1025.0 - 0.0
03/08:10am 8.0 3.1 2.3 67 2.5 SSE 17 20 9 11 1024.6 - 0.0
03/08:00am 8.1 4.0 2.4 67 2.5 S 13 32 7 17 1024.3 - 0.0
03/07:40am 7.9 3.7 1.9 66 2.6 SSW 13 20 7 11 1024.5 - 0.0
03/07:30am 7.8 3.7 2.1 67 2.5 S 13 19 7 10 1024.5 - 0.0
03/07:10am 8.0 3.1 2.1 66 2.6 S 17 28 9 15 1024.4 - 0.0
03/07:00am 7.9 4.2 2.2 67 2.5 S 11 19 6 10 1024.3 - 0.0
03/06:50am 7.9 3.8 2.1 67 2.5 S 13 17 7 9 1024.3 - 0.0
03/06:30am 7.8 3.7 2.0 67 2.5 SSE 13 19 7 10 1024.2 - 0.0
03/06:20am 7.6 4.2 2.1 68 2.4 S 9 15 5 8 1024.1 - 0.0
03/06:10am 7.7 4.0 2.4 69 2.3 SSW 11 13 6 7 1024.1 - 0.0
03/05:50am 7.6 3.1 2.3 69 2.3 SE 15 20 8 11 1024.1 - 0.0
03/05:40am 7.7 4.3 2.1 67 2.4 SSE 9 20 5 11 1024.0 - 0.0
03/05:10am 7.5 3.4 2.1 68 2.4 S 13 20 7 11 1023.6 - 0.0
03/04:40am 7.6 3.8 1.5 65 2.6 S 11 17 6 9 1023.6 - 0.0
03/04:30am 7.5 3.7 1.9 67 2.4 SSE 11 17 6 9 1024.0 - 0.0
03/04:20am 7.5 3.4 2.0 68 2.4 S 13 20 7 11 1024.1 - 0.0
03/04:10am 7.4 3.6 2.0 68 2.3 SSE 11 19 6 10 1024.0 - 0.0
03/04:00am 7.4 3.3 2.2 69 2.3 S 13 19 7 10 1023.8 - 0.0
03/03:50am 7.3 3.6 2.3 70 2.2 SSW 11 17 6 9 1023.9 - 0.0
03/03:30am 7.2 3.4 2.0 69 2.3 S 11 17 6 9 1024.3 - 0.0
03/03:10am 7.3 3.2 2.3 70 2.2 S 13 17 7 9 1024.3 - 0.0
03/03:00am 7.3 3.2 2.5 71 2.1 SSE 13 20 7 11 1024.4 - 0.0
03/02:50am 7.2 3.5 2.3 71 2.1 S 11 24 6 13 1024.2 - 0.0
03/02:40am 7.2 2.3 2.1 70 2.2 S 17 22 9 12 1024.0 - 0.0
03/02:20am 7.1 3.0 2.4 72 2.1 SSW 13 24 7 13 1024.6 - 0.0
03/01:20am 7.1 3.7 1.9 69 2.2 SW 9 13 5 7 1024.7 - 0.0
03/01:10am 7.1 3.2 1.4 67 2.4 SSW 11 19 6 10 1024.4 - 0.0
03/12:30am 6.8 3.5 2.4 73 1.9 NW 9 15 5 8 1025.0 - 0.0
03/12:20am 6.9 3.6 2.3 72 2.0 NW 9 15 5 8 1025.1 - 0.0
03/12:10am 6.9 4.0 2.6 74 1.9 S 7 11 4 6 1025.2 - 0.0
03/12:00am 6.9 3.6 2.5 73 1.9 SSW 9 13 5 7 1025.5 - 0.0
 
Date/Time
EST
Temp
°C
App
Temp
°C
Dew
Point
°C
Rel
Hum
%
Delta-T
°C
Wind Press
QNH
hPa
Press
MSL
hPa
Rain since
9am
mm
Dir  Spd
km/h
Gust
km/h
Spd
kts
Gust
kts
02/11:50pm 7.0 3.7 2.5 73 2.0 SSE 9 22 5 12 1025.5 - 0.0
02/11:20pm 7.2 3.1 2.5 72 2.1 ESE 13 22 7 12 1025.8 - 0.0
02/11:10pm 7.2 4.3 2.4 71 2.1 E 7 15 4 8 1025.8 - 0.0
02/10:40pm 7.1 3.8 2.3 71 2.1 SW 9 15 5 8 1025.5 - 0.0
02/10:20pm 7.2 3.9 2.2 70 2.2 S 9 15 5 8 1025.2 - 0.0
02/09:40pm 7.0 3.6 1.8 69 2.2 SW 9 17 5 9 1024.9 - 0.0
02/09:10pm 7.1 3.8 2.6 73 2.0 SSW 9 17 5 9 1025.6 - 0.0
02/09:00pm 7.2 4.5 2.6 72 2.0 SSW 6 11 3 6 1025.7 - 0.0
02/08:50pm 7.2 3.5 2.5 72 2.1 SSE 11 19 6 10 1025.6 - 0.0
02/08:30pm 7.2 3.5 2.4 71 2.1 WSW 11 20 6 11 1025.7 - 0.0
02/08:10pm 7.3 3.2 2.5 71 2.1 S 13 20 7 11 1025.4 - 0.0
02/08:00pm 7.3 3.6 2.4 71 2.1 SSW 11 19 6 10 1025.5 - 0.0
02/07:50pm 7.2 4.3 2.6 72 2.0 S 7 15 4 8 1025.7 - 0.0
02/07:30pm 7.3 4.0 2.6 72 2.1 S 9 15 5 8 1025.6 - 0.0
02/07:00pm 7.4 3.0 2.5 71 2.2 S 15 28 8 15 1025.6 - 0.0
02/06:50pm 7.4 3.7 2.3 70 2.2 SSE 11 17 6 9 1025.4 - 0.0
02/06:40pm 7.5 2.7 2.5 70 2.2 S 17 30 9 16 1025.5 - 0.0
02/06:30pm 7.5 4.2 2.6 71 2.2 SSW 9 17 5 9 1025.5 - 0.0
02/06:20pm 7.5 3.4 2.3 69 2.3 S 13 20 7 11 1025.3 - 0.0
02/06:00pm 7.4 3.3 2.5 71 2.2 SSW 13 19 7 10 1025.4 - 0.0
02/05:50pm 7.5 4.2 2.2 69 2.3 SSW 9 15 5 8 1025.3 - 0.0
02/05:20pm 7.5 4.2 2.2 69 2.3 SSW 9 19 5 10 1025.1 - 0.0
02/05:00pm 7.6 4.4 2.8 71 2.1 SW 9 15 5 8 1025.1 - 0.0
02/04:50pm 7.8 4.5 2.4 68 2.4 SSW 9 19 5 10 1025.1 - 0.0
02/04:30pm 8.1 5.8 2.7 69 2.4 W 4 9 2 5 1025.3 - 0.0
02/04:20pm 8.1 4.4 2.5 68 2.5 S 11 19 6 10 1025.0 - 0.0
02/04:10pm 8.2 4.9 2.3 66 2.6 S 9 11 5 6 1025.0 - 0.0
02/04:00pm 8.2 4.5 2.1 65 2.7 S 11 17 6 9 1024.9 - 0.0
02/03:50pm 8.2 5.5 2.8 69 2.4 SSW 6 9 3 5 1024.9 - 0.0
02/03:40pm 8.4 5.2 2.8 68 2.5 SSW 9 20 5 11 1025.1 - 0.0
02/03:10pm 8.5 5.9 3.0 68 2.5 NNW 6 13 3 7 1025.1 - 0.0
02/03:00pm 8.4 5.5 2.6 67 2.6 SSW 7 15 4 8 1024.8 - 0.0
02/02:50pm 8.3 5.0 2.7 68 2.5 SSW 9 20 5 11 1024.8 - 0.0
02/02:20pm 8.6 5.4 3.1 68 2.5 S 9 13 5 7 1025.2 - 0.0
02/02:10pm 8.6 6.0 3.0 68 2.5 SW 6 11 3 6 1024.8 - 0.0
02/01:50pm 8.4 5.7 2.7 67 2.5 E 6 17 3 9 1025.0 - 0.0
02/01:40pm 8.3 5.1 2.8 68 2.5 S 9 17 5 9 1025.2 - 0.0
02/01:20pm 8.2 4.2 3.1 70 2.3 S 13 28 7 15 1025.2 - 0.0
02/01:10pm 8.4 5.7 3.7 72 2.1 SW 7 11 4 6 1025.6 - 0.0
02/01:00pm 8.6 6.0 3.1 68 2.5 SW 6 11 3 6 1025.5 - 0.0
02/12:50pm 8.6 5.1 3.3 69 2.4 S 11 17 6 9 1025.8 - 0.0
02/12:30pm 8.5 5.7 3.2 69 2.4 ESE 7 15 4 8 1025.9 - 0.0
02/12:20pm 8.4 5.6 3.1 69 2.4 SW 7 13 4 7 1026.2 - 0.0
02/12:10pm 8.4 5.7 3.6 72 2.2 SSE 7 13 4 7 1026.3 - 0.0
02/11:50am 8.3 5.4 2.6 67 2.5 S 7 17 4 9 1026.2 - 0.0
02/11:40am 8.3 5.0 2.5 67 2.6 SE 9 17 5 9 1026.3 - 0.0
02/11:30am 8.5 5.8 2.8 67 2.5 WSW 6 17 3 9 1026.4 - 0.0
02/11:20am 8.4 3.6 2.7 67 2.5 SSE 17 26 9 14 1026.3 - 0.0
02/11:10am 8.5 5.3 2.9 68 2.5 ESE 9 22 5 12 1026.8 - 0.0
02/10:30am 8.0 5.1 2.5 68 2.4 W 7 17 4 9 1027.3 - 0.0
02/10:10am 8.0 5.1 2.6 69 2.4 SSE 7 15 4 8 1027.2 - 0.0
02/09:30am 8.2 4.4 2.0 65 2.7 SSW 11 19 6 10 1027.1 - 0.0
02/09:20am 7.8 4.8 2.3 68 2.4 SSW 7 11 4 6 1027.0 - 0.0
02/09:10am 7.5 4.9 3.1 73 2.0 WNW 6 9 3 5 1027.0 - 0.0
02/09:00am 7.4 4.6 2.1 69 2.3 W 6 9 3 5 1026.9 - 7.8
02/08:50am 7.3 4.3 2.1 69 2.3 S 7 15 4 8 1027.1 - 7.8
02/08:30am 6.9 3.2 2.5 73 1.9 S 11 17 6 9 1027.2 - 7.8
02/08:10am 6.8 4.0 2.0 71 2.1 WSW 6 11 3 6 1027.5 - 7.8
02/07:40am 6.4 3.0 1.8 72 2.0 SSW 9 17 5 9 1027.3 - 7.8
02/07:30am 6.4 3.0 1.9 73 1.9 SW 9 17 5 9 1027.2 - 7.8
02/07:20am 6.4 2.2 1.7 72 2.0 SSW 13 22 7 12 1027.2 - 7.8
02/07:10am 6.4 2.2 1.8 72 2.0 SSW 13 19 7 10 1027.3 - 7.8
02/07:00am 6.3 2.2 2.0 74 1.8 SSW 13 20 7 11 1027.2 - 7.8
02/06:40am 6.3 2.1 1.5 71 2.0 SSW 13 17 7 9 1027.0 - 7.8
02/06:20am 6.3 3.3 1.7 72 2.0 SSW 7 13 4 7 1026.6 - 7.8
02/06:00am 6.3 2.9 2.0 74 1.8 SW 9 13 5 7 1026.5 - 7.8
02/05:20am 6.4 3.6 2.2 74 1.8 SW 6 9 3 5 1026.3 - 7.8
02/04:50am 6.7 2.9 1.7 70 2.1 S 11 22 6 12 1026.1 - 7.8
02/04:40am 6.6 3.5 1.5 70 2.2 SSW 7 13 4 7 1026.1 - 7.8
02/04:10am 6.6 3.6 1.8 71 2.1 SSW 7 11 4 6 1025.9 - 7.8
02/04:00am 6.7 3.3 1.6 70 2.2 S 9 17 5 9 1026.0 - 7.8
02/03:50am 6.5 3.4 1.4 70 2.2 SW 7 15 4 8 1026.1 - 7.8
02/03:40am 6.6 2.8 1.5 70 2.2 S 11 15 6 8 1026.0 - 7.8
02/03:30am 6.4 3.0 1.6 71 2.0 SSW 9 15 5 8 1026.2 - 7.8
02/03:20am 6.4 3.3 1.6 71 2.0 SSW 7 11 4 6 1026.0 - 7.8
02/03:10am 6.6 3.5 1.6 70 2.1 SE 7 17 4 9 1026.0 - 7.8
02/03:00am 6.5 2.3 1.6 71 2.1 SSE 13 20 7 11 1025.9 - 7.8
02/02:10am 6.4 3.6 1.9 73 1.9 S 6 13 3 7 1026.5 - 7.8
02/02:00am 6.4 2.2 1.7 72 2.0 S 13 19 7 10 1026.4 - 7.8
02/01:50am 6.2 3.2 2.1 75 1.8 SSW 7 11 4 6 1026.5 - 7.8
02/01:40am 6.3 3.5 1.8 73 1.9 W 6 9 3 5 1026.5 - 7.8
02/01:30am 6.3 3.3 2.0 74 1.8 SW 7 11 4 6 1026.8 - 7.8
02/01:20am 6.2 3.7 1.6 72 2.0 W 4 9 2 5 1026.8 - 7.8
02/01:10am 6.2 3.3 1.7 73 1.9 SSW 6 13 3 7 1026.9 - 7.8
02/01:00am 6.1 3.0 1.4 72 2.0 SSW 7 15 4 8 1026.9 - 7.8
02/12:50am 5.8 2.8 1.7 75 1.7 WSW 7 13 4 7 1026.9 - 7.8
02/12:40am 5.8 2.0 1.8 75 1.7 SSW 11 15 6 8 1026.6 - 7.8
02/12:20am 5.9 3.1 1.9 75 1.7 WSW 6 7 3 4 1026.8 - 7.8
02/12:10am 6.1 3.3 1.9 74 1.8 WSW 6 9 3 5 1026.8 - 7.8
02/12:00am 6.2 3.4 1.9 74 1.8 SW 6 9 3 5 1026.9 - 7.8
 
Date/Time
EST
Temp
°C
App
Temp
°C
Dew
Point
°C
Rel
Hum
%
Delta-T
°C
Wind Press
QNH
hPa
Press
MSL
hPa
Rain since
9am
mm
Dir  Spd
km/h
Gust
km/h
Spd
kts
Gust
kts
01/11:40pm 6.0 3.1 1.6 73 1.9 SW 6 9 3 5 1027.1 - 7.8
01/11:20pm 5.9 3.4 1.4 73 1.9 SW 4 11 2 6 1027.1 - 7.8
01/11:10pm 5.8 2.4 2.0 76 1.6 S 9 13 5 7 1027.1 - 7.8
01/10:50pm 5.8 0.5 2.1 77 1.6 SSW 19 24 10 13 1027.0 - 7.8
01/10:40pm 5.9 1.0 2.1 76 1.6 S 17 24 9 13 1027.0 - 7.8
01/10:30pm 5.9 2.1 1.9 75 1.7 SSW 11 17 6 9 1027.3 - 7.8
01/10:20pm 6.1 3.0 1.5 72 1.9 WSW 7 11 4 6 1027.5 - 7.8
01/10:10pm 5.9 2.5 1.9 75 1.7 SSW 9 15 5 8 1027.1 - 7.8
01/10:00pm 5.8 2.9 1.7 75 1.7 S 6 13 3 7 1027.0 - 7.8
01/09:50pm 5.8 2.3 1.5 74 1.8 S 9 24 5 13 1027.0 - 7.8
01/09:40pm 5.5 -0.7 2.3 80 1.4 SSW 24 32 13 17 1026.9 - 7.8
01/09:30pm 5.2 -0.6 2.3 81 1.2 SSW 22 28 12 15 1027.1 - 7.8
01/09:20pm 5.1 -0.7 2.2 81 1.2 SSW 22 32 12 17 1027.1 - 7.8
01/09:10pm 4.8 -0.6 2.4 84 1.0 SSW 20 28 11 15 1027.1 - 7.8
01/09:00pm 4.7 -0.5 2.5 86 0.9 S 19 26 10 14 1027.3 - 7.8
01/08:50pm 4.7 -1.0 2.6 86 0.9 SSW 22 26 12 14 1027.6 - 7.8
01/08:40pm 4.8 0.7 2.5 85 1.0 SSW 13 26 7 14 1027.5 - 7.6
01/08:30pm 5.0 1.4 2.8 86 1.0 SSW 11 22 6 12 1027.7 - 7.4
01/08:20pm 5.0 2.1 2.7 85 1.0 SW 7 13 4 7 1027.8 - 7.2
01/08:10pm 5.2 1.1 2.1 80 1.3 S 13 19 7 10 1027.7 - 7.0
01/08:00pm 5.1 1.4 2.3 82 1.2 S 11 15 6 8 1027.8 - 7.0
01/07:50pm 5.1 1.0 2.4 83 1.2 SSW 13 17 7 9 1027.7 - 6.8
01/07:40pm 5.2 1.1 2.3 81 1.2 S 13 20 7 11 1027.6 - 6.8
01/07:30pm 5.3 2.5 2.3 81 1.3 S 6 7 3 4 1027.6 - 6.8
01/07:20pm 5.2 2.9 2.6 83 1.1 S 4 7 2 4 1027.6 - 6.8
01/07:10pm 5.2 2.3 2.6 83 1.1 S 7 13 4 7 1027.4 - 6.8
01/07:00pm 5.1 2.1 2.2 81 1.2 S 7 13 4 7 1027.3 - 6.8
01/06:50pm 5.0 0.5 2.2 82 1.2 SSW 15 20 8 11 1027.1 - 6.8
01/06:40pm 4.8 -0.7 2.1 83 1.1 SSW 20 24 11 13 1026.9 - 6.8

Other formats

Comma delimited format used in spreadsheet applications
http://www.bom.gov.au/fwo/IDN60801/IDN60801.99762.axf

JavaScript Object Notation format (JSON) in row-major order
http://www.bom.gov.au/fwo/IDN60801/IDN60801.99762.json

Data quality

Most of these data are generated automatically and are frequently updated. Quality checks on data are not normally performed. It is possible for incorrect values to appear. Refer to information at About Latest Weather Observations and please check the disclaimer before using these data.